createdAt,value
2022-10-20T00:03:14.095Z,100.00
2022-10-20T00:07:16.083Z,100.00
2022-10-20T00:11:20.596Z,100.00
2022-10-20T00:15:22.447Z,100.00
2022-10-20T00:19:24.377Z,100.00
2022-10-20T00:23:26.486Z,100.00
2022-10-20T00:27:28.481Z,100.00
2022-10-20T00:31:31.835Z,100.00
2022-10-20T00:35:37.520Z,100.00
2022-10-20T00:39:39.529Z,100.00
2022-10-20T00:43:43.894Z,100.00
2022-10-20T00:47:59.627Z,100.00
2022-10-20T00:52:02.026Z,100.00
2022-10-20T00:56:04.583Z,100.00
2022-10-20T01:00:08.952Z,100.00
2022-10-20T01:04:11.471Z,100.00
2022-10-20T01:08:13.484Z,100.00
2022-10-20T01:12:20.107Z,100.00
2022-10-20T01:16:39.557Z,100.00
2022-10-20T01:21:15.289Z,100.00
2022-10-20T01:25:38.538Z,100.00
2022-10-20T01:29:55.387Z,100.00
2022-10-20T01:34:11.205Z,100.00
2022-10-20T01:38:45.567Z,100.00
2022-10-20T01:42:51.133Z,100.00
2022-10-20T01:46:55.497Z,100.00
2022-10-20T01:50:59.210Z,100.00
2022-10-20T01:55:11.650Z,100.00
2022-10-20T01:59:35.050Z,100.00
2022-10-20T02:03:46.963Z,100.00
2022-10-20T02:07:49.392Z,100.00
2022-10-20T02:12:24.641Z,100.00
2022-10-20T02:16:36.780Z,100.00
2022-10-20T02:20:43.773Z,100.00
2022-10-20T02:24:46.072Z,100.00
2022-10-20T02:28:55.958Z,100.00
2022-10-20T02:32:58.014Z,100.00
2022-10-20T02:36:59.968Z,100.00
2022-10-20T02:41:01.960Z,100.00
2022-10-20T02:45:04.283Z,100.00
2022-10-20T02:49:06.440Z,100.00
2022-10-20T02:53:08.418Z,100.00
2022-10-20T02:57:10.589Z,100.00
2022-10-20T03:01:12.648Z,100.00
2022-10-20T03:05:14.935Z,100.00
2022-10-20T03:09:17.053Z,100.00
2022-10-20T03:13:19.245Z,100.00
2022-10-20T03:17:22.060Z,100.00
2022-10-20T03:21:24.058Z,100.00
2022-10-20T03:25:26.215Z,100.00
2022-10-20T03:29:28.156Z,100.00
2022-10-20T03:33:30.545Z,100.00
2022-10-20T03:37:32.588Z,100.00
2022-10-20T03:41:34.557Z,100.00
2022-10-20T03:45:36.627Z,100.00
2022-10-20T03:49:39.233Z,100.00
2022-10-20T03:53:41.398Z,100.00
2022-10-20T03:57:43.424Z,100.00
2022-10-20T04:01:46.592Z,100.00
2022-10-20T04:05:48.619Z,100.00
2022-10-20T04:09:50.840Z,100.00
2022-10-20T04:13:53.542Z,100.00
2022-10-20T04:17:55.609Z,100.00
2022-10-20T04:21:57.570Z,100.00
2022-10-20T04:25:59.560Z,100.00
2022-10-20T04:30:01.620Z,100.00
2022-10-20T04:34:08.449Z,100.00
2022-10-20T04:42:30.007Z,100.00
2022-10-20T04:46:38.596Z,100.00
2022-10-20T04:50:42.682Z,100.00
2022-10-20T04:54:48.188Z,100.00
2022-10-20T04:58:57.056Z,100.00
2022-10-20T05:03:00.351Z,100.00
2022-10-20T05:07:08.975Z,100.00
2022-10-20T05:11:11.479Z,100.00
2022-10-20T05:19:50.715Z,100.00
2022-10-20T05:24:00.438Z,100.00
2022-10-20T05:28:02.376Z,100.00
2022-10-20T05:32:04.484Z,100.00
2022-10-20T05:36:08.549Z,100.00
2022-10-20T05:40:11.140Z,100.00
2022-10-20T05:44:13.282Z,100.00
2022-10-20T05:48:15.251Z,100.00
2022-10-20T05:52:17.465Z,100.00
2022-10-20T05:56:20.747Z,100.00
2022-10-20T06:00:31.717Z,100.00
2022-10-20T06:04:33.863Z,100.00
2022-10-20T06:08:35.864Z,100.00
2022-10-20T06:12:38.273Z,100.00
2022-10-20T06:16:40.543Z,100.00
2022-10-20T06:20:42.446Z,100.00
2022-10-20T06:24:44.692Z,100.00
2022-10-20T06:28:49.283Z,100.00
2022-10-20T06:32:55.480Z,100.00
2022-10-20T06:36:58.442Z,100.00
2022-10-20T06:41:08.177Z,100.00
2022-10-20T06:45:11.441Z,100.00
2022-10-20T06:49:15.549Z,100.00
2022-10-20T06:53:17.685Z,100.00
2022-10-20T06:57:19.598Z,100.00
2022-10-20T07:01:30.419Z,100.00
2022-10-20T07:05:34.436Z,100.00
2022-10-20T07:09:36.377Z,100.00
2022-10-20T07:13:39.707Z,100.00
2022-10-20T07:17:41.695Z,100.00
2022-10-20T07:21:45.613Z,100.00
2022-10-20T07:25:48.027Z,100.00
2022-10-20T07:29:50.050Z,100.00
2022-10-20T07:34:13.125Z,100.00
2022-10-20T07:38:14.135Z,100.00
2022-10-20T07:42:16.149Z,100.00
2022-10-20T07:46:18.142Z,100.00
2022-10-20T07:50:20.151Z,100.00
2022-10-20T07:54:22.660Z,100.00
2022-10-20T07:58:24.722Z,100.00
2022-10-20T08:02:26.719Z,100.00
2022-10-20T08:06:28.993Z,100.00
2022-10-20T08:10:30.939Z,100.00
2022-10-20T08:14:35.147Z,100.00
2022-10-20T08:18:41.246Z,100.00
2022-10-20T08:22:43.188Z,100.00
2022-10-20T08:26:45.486Z,100.00
2022-10-20T08:30:47.439Z,100.00
2022-10-20T08:34:49.389Z,100.00
2022-10-20T08:38:51.507Z,100.00
2022-10-20T08:42:53.874Z,100.00
2022-10-20T08:46:56.023Z,100.00
2022-10-20T08:50:58.834Z,100.00
2022-10-20T08:55:03.575Z,100.00
2022-10-20T08:59:16.986Z,100.00
2022-10-20T09:03:27.631Z,100.00
2022-10-20T09:07:34.402Z,100.00
2022-10-20T09:11:40.328Z,100.00
2022-10-20T09:15:43.015Z,100.00
2022-10-20T09:19:50.051Z,100.00
2022-10-20T09:23:54.994Z,100.00
2022-10-20T09:27:57.078Z,100.00
2022-10-20T09:32:01.414Z,100.00
2022-10-20T09:36:16.571Z,100.00
2022-10-20T09:40:19.157Z,100.00
2022-10-20T09:44:25.587Z,100.00
2022-10-20T09:48:32.977Z,100.00
2022-10-20T09:52:47.644Z,100.00
2022-10-20T09:56:50.442Z,100.00
2022-10-20T10:01:05.267Z,100.00
2022-10-20T10:05:20.966Z,100.00
2022-10-20T10:09:36.106Z,100.00
2022-10-20T10:13:42.382Z,100.00
2022-10-20T10:17:44.780Z,100.00
2022-10-20T10:21:54.180Z,100.00
2022-10-20T10:25:59.267Z,100.00
2022-10-20T10:30:38.306Z,93.47
2022-10-20T10:35:09.367Z,88.27
2022-10-20T10:39:14.389Z,100.00
2022-10-20T10:43:29.811Z,83.00
2022-10-20T10:48:03.172Z,67.98
2022-10-20T10:52:44.249Z,71.57
2022-10-20T10:56:52.235Z,76.41
2022-10-20T11:01:17.219Z,67.70
2022-10-20T11:05:27.936Z,82.20
2022-10-20T11:09:45.108Z,82.94
2022-10-20T11:14:08.369Z,69.49
2022-10-20T11:18:47.872Z,70.35
2022-10-20T11:27:39.763Z,82.44
2022-10-20T11:32:13.814Z,70.68
2022-10-20T11:36:19.436Z,77.85
2022-10-20T11:40:30.345Z,70.16
2022-10-20T11:44:38.629Z,76.15
2022-10-20T11:48:46.072Z,76.39
2022-10-20T11:53:04.423Z,79.25
2022-10-20T11:57:30.673Z,79.81
2022-10-20T12:02:04.956Z,63.17
2022-10-20T12:06:54.812Z,69.08
2022-10-20T12:11:18.507Z,62.63
2022-10-20T12:15:26.222Z,74.47
2022-10-20T12:19:34.341Z,64.69
2022-10-20T12:23:45.839Z,67.30
2022-10-20T12:28:19.577Z,61.13
2022-10-20T12:32:21.509Z,74.69
2022-10-20T12:36:29.144Z,73.12
2022-10-20T12:40:34.735Z,71.15
2022-10-20T12:44:45.908Z,63.41
2022-10-20T12:48:56.587Z,68.07
2022-10-20T12:53:19.327Z,58.51
2022-10-20T12:57:27.279Z,63.13
2022-10-20T13:01:29.274Z,68.24
2022-10-20T13:05:48.758Z,58.47
2022-10-20T13:10:00.282Z,64.49
2022-10-20T13:14:13.544Z,61.09
2022-10-20T13:18:32.871Z,55.41
2022-10-20T13:22:46.701Z,55.33
2022-10-20T13:26:54.439Z,61.00
2022-10-20T13:30:56.471Z,62.44
2022-10-20T13:35:38.449Z,54.69
2022-10-20T13:39:54.411Z,58.08
2022-10-20T13:44:24.268Z,60.10
2022-10-20T13:48:39.941Z,58.01
2022-10-20T13:52:46.292Z,60.78
2022-10-20T13:56:49.800Z,59.28
2022-10-20T14:01:05.352Z,54.14
2022-10-20T14:05:14.142Z,52.24
2022-10-20T14:09:19.838Z,58.29
2022-10-20T14:13:26.340Z,56.36
2022-10-20T14:17:28.353Z,57.05
2022-10-20T14:21:39.171Z,56.09
2022-10-20T14:25:50.344Z,56.29
2022-10-20T14:29:52.969Z,55.11
2022-10-20T14:33:55.193Z,54.43
2022-10-20T14:38:05.922Z,53.99
2022-10-20T14:42:28.151Z,54.51
2022-10-20T14:46:37.077Z,57.20
2022-10-20T14:50:41.408Z,56.86
2022-10-20T14:54:44.781Z,57.66
2022-10-20T14:59:02.058Z,54.57
2022-10-20T15:03:07.326Z,59.51
2022-10-20T15:07:17.457Z,58.87
2022-10-20T15:11:24.958Z,61.83
2022-10-20T15:15:37.529Z,59.88
2022-10-20T15:19:39.485Z,62.67
2022-10-20T15:23:41.447Z,62.39
2022-10-20T15:27:43.408Z,65.24
2022-10-20T15:31:45.376Z,66.81
2022-10-20T15:35:48.420Z,68.83
2022-10-20T15:39:50.477Z,71.06
2022-10-20T15:43:52.806Z,73.75
2022-10-20T15:47:54.737Z,81.57
2022-10-20T15:51:56.883Z,89.63
2022-10-20T15:55:58.865Z,93.01
2022-10-20T16:00:00.864Z,96.65
2022-10-20T16:04:32.451Z,100.00
2022-10-20T16:08:35.553Z,100.00
2022-10-20T16:12:38.739Z,100.00
2022-10-20T16:16:41.623Z,100.00
2022-10-20T16:20:43.571Z,100.00
2022-10-20T16:24:47.445Z,100.00
2022-10-20T16:28:49.445Z,100.00
2022-10-20T16:32:51.413Z,100.00
2022-10-20T16:36:53.403Z,100.00
2022-10-20T16:41:00.270Z,100.00
2022-10-20T16:45:02.406Z,100.00
2022-10-20T16:49:04.983Z,100.00
2022-10-20T16:53:06.902Z,100.00
2022-10-20T16:57:11.373Z,100.00
2022-10-20T17:01:15.946Z,100.00
2022-10-20T17:05:19.736Z,100.00
2022-10-20T17:09:21.896Z,100.00
2022-10-20T17:13:24.494Z,100.00
2022-10-20T17:17:26.467Z,100.00
2022-10-20T17:21:30.151Z,100.00
2022-10-20T17:25:32.779Z,100.00
2022-10-20T17:29:34.929Z,100.00
2022-10-20T17:33:38.533Z,100.00
2022-10-20T17:37:40.847Z,100.00
2022-10-20T17:41:43.884Z,100.00
2022-10-20T17:46:06.608Z,100.00
2022-10-20T17:50:09.676Z,100.00
2022-10-20T17:54:11.683Z,100.00
2022-10-20T17:58:13.604Z,100.00
2022-10-20T18:02:15.539Z,100.00
2022-10-20T18:06:20.105Z,100.00
2022-10-20T18:14:24.459Z,100.00
2022-10-20T18:18:32.779Z,100.00
2022-10-20T18:22:47.193Z,100.00
2022-10-20T18:26:49.547Z,100.00
2022-10-20T18:30:51.845Z,100.00
2022-10-20T18:34:53.890Z,100.00
2022-10-20T18:38:56.322Z,100.00
2022-10-20T18:43:18.558Z,100.00
2022-10-20T18:47:20.841Z,100.00
2022-10-20T18:51:22.918Z,100.00
2022-10-20T18:55:24.884Z,100.00
2022-10-20T18:59:26.911Z,100.00
2022-10-20T19:03:31.542Z,100.00
2022-10-20T19:07:34.820Z,100.00
2022-10-20T19:11:39.777Z,100.00
2022-10-20T19:15:42.032Z,100.00
2022-10-20T19:19:44.733Z,100.00
2022-10-20T19:24:02.053Z,100.00
2022-10-20T19:28:04.176Z,100.00
2022-10-20T19:32:07.535Z,100.00
2022-10-20T19:36:11.348Z,100.00
2022-10-20T19:40:13.678Z,100.00
2022-10-20T19:44:16.125Z,100.00
2022-10-20T19:48:19.987Z,100.00
2022-10-20T19:52:22.266Z,100.00
2022-10-20T19:56:24.245Z,100.00
2022-10-20T20:00:26.264Z,100.00
2022-10-20T20:04:28.431Z,100.00
2022-10-20T20:08:30.885Z,100.00
2022-10-20T20:12:32.927Z,100.00
2022-10-20T20:16:35.437Z,100.00
2022-10-20T20:20:39.832Z,100.00
2022-10-20T20:24:42.485Z,100.00
2022-10-20T20:28:44.439Z,100.00
2022-10-20T20:32:47.810Z,100.00
2022-10-20T20:36:52.798Z,100.00
2022-10-20T20:40:58.825Z,100.00
2022-10-20T20:45:01.991Z,100.00
2022-10-20T20:49:04.358Z,100.00
2022-10-20T20:53:06.336Z,100.00
2022-10-20T20:57:08.402Z,100.00
2022-10-20T21:01:23.241Z,100.00
2022-10-20T21:05:25.363Z,100.00
2022-10-20T21:09:27.472Z,100.00
2022-10-20T21:13:31.871Z,100.00
2022-10-20T21:17:34.068Z,100.00
2022-10-20T21:21:43.860Z,100.00
2022-10-20T21:25:46.681Z,100.00
2022-10-20T21:29:48.778Z,100.00
2022-10-20T21:33:52.692Z,100.00
2022-10-20T21:37:54.742Z,100.00
2022-10-20T21:41:57.020Z,100.00
2022-10-20T21:46:28.295Z,100.00
2022-10-20T21:50:30.329Z,100.00
2022-10-20T21:54:32.628Z,100.00
2022-10-20T21:58:35.410Z,100.00
2022-10-20T22:02:37.535Z,100.00
2022-10-20T22:06:39.790Z,100.00
2022-10-20T22:10:41.898Z,100.00
2022-10-20T22:14:46.474Z,100.00
2022-10-20T22:18:57.715Z,100.00
2022-10-20T22:23:01.014Z,100.00
2022-10-20T22:27:08.513Z,100.00
2022-10-20T22:31:15.905Z,100.00
2022-10-20T22:35:20.137Z,100.00
2022-10-20T22:39:22.154Z,100.00
2022-10-20T22:43:24.123Z,100.00
2022-10-20T22:47:26.222Z,100.00
2022-10-20T22:51:28.609Z,100.00
2022-10-20T22:55:30.549Z,100.00
2022-10-20T22:59:32.885Z,100.00
2022-10-20T23:03:34.854Z,100.00
2022-10-20T23:07:37.554Z,100.00
2022-10-20T23:11:39.763Z,100.00
2022-10-20T23:15:50.215Z,100.00
2022-10-20T23:19:52.429Z,100.00
2022-10-20T23:23:54.950Z,100.00
2022-10-20T23:27:56.915Z,100.00
2022-10-20T23:31:58.966Z,100.00
2022-10-20T23:36:01.022Z,100.00
2022-10-20T23:40:03.084Z,100.00
2022-10-20T23:44:05.057Z,100.00
2022-10-20T23:48:07.072Z,100.00
2022-10-20T23:52:09.039Z,100.00
2022-10-20T23:56:11.206Z,100.00
